Time;durP1;ratioP1;P1;durP2;ratioP2;P2;SDS_P1;SDS_P2;PMS_P1;PMS_P2;Temp;Humidity;BMP_temperature;BMP_pressure;BME280_temperature;BME280_humidity;BME280_pressure;Samples;Min_cycle;Max_cycle;Signal;HPM_P1;HPM_P2
2021/12/15 00:01:24;;;;;;;66.50;28.17;;;;;;;;;;4972791;28;20025;-66
2021/12/15 00:03:50;;;;;;;63.60;26.38;;;;;;;;;;4990443;28;20349;-66
2021/12/15 00:06:17;;;;;;;69.63;28.42;;;;;;;;;;4972182;28;20068;-66
2021/12/15 00:08:44;;;;;;;59.63;26.80;;;;;;;;;;4989209;28;20328;-67
2021/12/15 00:11:11;;;;;;;74.55;27.58;;;;;;;;;;4972709;28;20375;-67
2021/12/15 00:13:37;;;;;;;69.47;29.02;;;;;;;;;;4973570;28;20333;-66
2021/12/15 00:16:03;;;;;;;61.67;26.80;;;;;;;;;;4991118;28;20563;-66
2021/12/15 00:18:29;;;;;;;72.55;30.65;;;;;;;;;;4972236;28;20501;-66
2021/12/15 00:20:54;;;;;;;59.45;27.33;;;;;;;;;;4991131;28;20471;-66
2021/12/15 00:23:19;;;;;;;71.13;28.35;;;;;;;;;;4990630;28;20033;-66
2021/12/15 00:25:45;;;;;;;68.38;25.70;;;;;;;;;;4990941;28;20368;-66
2021/12/15 00:28:10;;;;;;;64.28;27.38;;;;;;;;;;4990374;28;20423;-67
2021/12/15 00:30:37;;;;;;;62.60;26.73;;;;;;;;;;4988674;28;20379;-67
2021/12/15 00:33:03;;;;;;;75.70;27.90;;;;;;;;;;4991382;28;20343;-67
2021/12/15 00:35:29;;;;;;;64.28;26.52;;;;;;;;;;4972488;28;20099;-66
2021/12/15 00:37:54;;;;;;;70.65;28.15;;;;;;;;;;4989881;28;20436;-66
2021/12/15 00:40:22;;;;;;;66.50;27.27;;;;;;;;;;4989230;28;20359;-66
2021/12/15 00:42:49;;;;;;;70.53;27.77;;;;;;;;;;4989855;28;20428;-67
2021/12/15 00:45:15;;;;;;;61.75;25.85;;;;;;;;;;4990232;28;20055;-67
2021/12/15 00:47:42;;;;;;;67.13;28.83;;;;;;;;;;4972338;28;20025;-66
2021/12/15 00:50:10;;;;;;;69.10;26.60;;;;;;;;;;4989375;28;20155;-66
2021/12/15 00:52:40;;;;;;;64.40;27.42;;;;;;;;;;4989641;28;20427;-66
2021/12/15 00:55:09;;;;;;;67.40;27.42;;;;;;;;;;4990251;28;20020;-67
2021/12/15 00:57:35;;;;;;;63.58;26.75;;;;;;;;;;4991293;28;20029;-66
2021/12/15 01:00:01;;;;;;;63.92;27.25;;;;;;;;;;4989680;28;20501;-66
2021/12/15 01:02:26;;;;;;;68.40;28.00;;;;;;;;;;4959732;28;20406;-67
2021/12/15 01:04:52;;;;;;;62.55;26.42;;;;;;;;;;4989640;28;20385;-66
2021/12/15 01:07:17;;;;;;;73.60;28.52;;;;;;;;;;4988914;28;20384;-67
2021/12/15 01:09:49;;;;;;;58.67;26.23;;;;;;;;;;4989570;28;20451;-66
2021/12/15 01:20:33;;;;;;;66.15;25.92;;;;;;;;;;4990704;28;20143;-66
2021/12/15 01:23:02;;;;;;;61.25;28.75;;;;;;;;;;4990807;28;20340;-66
2021/12/15 01:25:40;;;;;;;60.58;24.42;;;;;;;;;;4987907;28;20029;-66
2021/12/15 01:28:07;;;;;;;62.80;25.52;;;;;;;;;;4989205;28;20452;-68
2021/12/15 01:30:36;;;;;;;60.75;26.60;;;;;;;;;;4988912;28;20450;-66
2021/12/15 01:33:02;;;;;;;56.92;24.80;;;;;;;;;;4988206;28;20462;-67
2021/12/15 01:35:29;;;;;;;66.18;27.10;;;;;;;;;;4989157;28;20343;-66
2021/12/15 01:37:54;;;;;;;59.80;26.17;;;;;;;;;;4988685;28;20025;-66
2021/12/15 01:40:33;;;;;;;57.30;26.15;;;;;;;;;;4989208;28;20451;-66
2021/12/15 01:42:59;;;;;;;59.70;24.97;;;;;;;;;;4988591;28;20359;-66
2021/12/15 01:48:13;;;;;;;63.67;26.80;;;;;;;;;;4988309;28;20394;-66
2021/12/15 01:50:39;;;;;;;63.60;25.67;;;;;;;;;;4988733;28;20383;-66
2021/12/15 01:53:07;;;;;;;59.35;25.30;;;;;;;;;;4989047;28;20452;-66
2021/12/15 01:55:33;;;;;;;59.65;25.58;;;;;;;;;;4987604;28;20412;-66
2021/12/15 01:57:58;;;;;;;66.45;24.90;;;;;;;;;;4987744;28;20396;-66
2021/12/15 02:00:28;;;;;;;66.30;24.50;;;;;;;;;;4989061;28;20514;-67
2021/12/15 02:02:56;;;;;;;64.95;26.80;;;;;;;;;;4986876;28;20036;-66
2021/12/15 02:05:21;;;;;;;58.05;25.60;;;;;;;;;;4989098;28;20483;-66
2021/12/15 02:07:48;;;;;;;60.47;24.50;;;;;;;;;;4988946;28;20423;-66
2021/12/15 02:10:14;;;;;;;57.60;24.35;;;;;;;;;;4970805;28;20364;-66
2021/12/15 02:12:42;;;;;;;64.35;25.85;;;;;;;;;;4987706;28;20328;-66
2021/12/15 02:15:18;;;;;;;63.55;27.38;;;;;;;;;;4987312;28;20421;-66
2021/12/15 02:17:44;;;;;;;58.65;25.75;;;;;;;;;;4988444;28;20498;-66
2021/12/15 02:20:12;;;;;;;64.47;26.77;;;;;;;;;;4988417;28;20407;-67
2021/12/15 02:22:38;;;;;;;63.20;25.45;;;;;;;;;;4988190;28;20521;-67
2021/12/15 02:25:07;;;;;;;55.72;25.35;;;;;;;;;;4988600;28;20395;-67
2021/12/15 02:27:35;;;;;;;59.35;26.83;;;;;;;;;;4970490;28;20470;-66
2021/12/15 02:30:18;;;;;;;63.25;25.63;;;;;;;;;;4989082;28;20363;-67
2021/12/15 02:33:09;;;;;;;59.33;24.40;;;;;;;;;;4989174;28;20033;-66
2021/12/15 02:38:29;;;;;;;57.10;23.63;;;;;;;;;;4988836;28;20451;-66
2021/12/15 02:41:04;;;;;;;54.70;24.45;;;;;;;;;;4992001;28;20451;-66
2021/12/15 02:43:30;;;;;;;56.58;24.77;;;;;;;;;;4991211;28;20037;-66
2021/12/15 02:45:55;;;;;;;63.08;24.42;;;;;;;;;;4992404;28;20048;-66
2021/12/15 02:48:20;;;;;;;62.03;26.25;;;;;;;;;;4992421;28;20056;-66
2021/12/15 02:50:46;;;;;;;61.53;25.35;;;;;;;;;;4992590;28;20436;-66
2021/12/15 02:53:11;;;;;;;65.45;25.52;;;;;;;;;;4990813;28;20155;-66
2021/12/15 02:55:37;;;;;;;70.53;27.50;;;;;;;;;;4993641;28;20427;-66
2021/12/15 02:58:03;;;;;;;57.30;25.65;;;;;;;;;;4991001;28;20317;-66
2021/12/15 03:00:43;;;;;;;57.45;24.50;;;;;;;;;;4991966;28;20137;-67
2021/12/15 03:06:01;;;;;;;54.60;25.00;;;;;;;;;;4990660;28;20375;-66
2021/12/15 03:08:51;;;;;;;57.85;25.55;;;;;;;;;;4991644;28;20136;-67
2021/12/15 03:16:47;;;;;;;63.03;24.33;;;;;;;;;;4992360;28;20380;-66
2021/12/15 03:19:13;;;;;;;51.10;22.48;;;;;;;;;;4991722;28;20383;-66
2021/12/15 03:21:39;;;;;;;51.17;23.15;;;;;;;;;;4991522;28;20473;-66
2021/12/15 03:24:11;;;;;;;63.67;24.38;;;;;;;;;;4991454;28;20586;-66
2021/12/15 03:26:43;;;;;;;56.15;23.17;;;;;;;;;;4974858;28;20431;-66
2021/12/15 03:37:21;;;;;;;58.67;24.23;;;;;;;;;;4991034;28;20464;-66
2021/12/15 03:39:47;;;;;;;56.22;23.15;;;;;;;;;;4992427;28;20534;-67
2021/12/15 03:42:20;;;;;;;58.90;23.90;;;;;;;;;;4991057;28;20359;-66
2021/12/15 03:44:47;;;;;;;53.78;23.75;;;;;;;;;;4990236;28;20413;-66
2021/12/15 03:47:20;;;;;;;63.72;23.27;;;;;;;;;;4990917;28;20359;-66
2021/12/15 03:49:45;;;;;;;63.58;23.40;;;;;;;;;;4973219;28;20130;-66
2021/12/15 03:52:12;;;;;;;53.13;23.27;;;;;;;;;;4989913;28;20487;-66
2021/12/15 03:54:39;;;;;;;56.25;24.70;;;;;;;;;;4990844;28;20419;-66
2021/12/15 03:57:04;;;;;;;50.85;23.50;;;;;;;;;;4990580;28;20520;-66
2021/12/15 03:59:33;;;;;;;45.92;21.25;;;;;;;;;;4989791;28;20427;-66
2021/12/15 04:01:58;;;;;;;52.42;23.23;;;;;;;;;;4991281;28;20478;-66
2021/12/15 04:04:24;;;;;;;49.88;23.52;;;;;;;;;;4992075;28;20402;-67
2021/12/15 04:06:49;;;;;;;61.60;22.25;;;;;;;;;;4990947;28;20356;-66
2021/12/15 04:09:15;;;;;;;55.20;23.50;;;;;;;;;;4972924;28;20507;-66
2021/12/15 04:11:41;;;;;;;53.67;24.35;;;;;;;;;;4991004;28;20436;-66
2021/12/15 04:14:18;;;;;;;52.90;22.90;;;;;;;;;;4990538;28;20175;-66
2021/12/15 04:16:57;;;;;;;57.88;23.85;;;;;;;;;;4989088;28;20051;-66
2021/12/15 04:19:22;;;;;;;55.65;23.50;;;;;;;;;;4990345;28;20044;-66
2021/12/15 04:21:48;;;;;;;53.10;23.15;;;;;;;;;;4991357;28;20408;-67
2021/12/15 04:24:16;;;;;;;50.75;24.42;;;;;;;;;;4989307;28;20452;-66
2021/12/15 04:26:42;;;;;;;54.90;22.55;;;;;;;;;;4990040;28;20033;-66
2021/12/15 04:29:07;;;;;;;58.47;22.85;;;;;;;;;;4989495;28;20348;-68
2021/12/15 04:31:55;;;;;;;50.92;23.00;;;;;;;;;;4989568;28;20335;-66
2021/12/15 04:34:20;;;;;;;51.45;23.63;;;;;;;;;;4990153;28;20332;-67
2021/12/15 04:36:49;;;;;;;51.08;22.45;;;;;;;;;;4992286;28;20363;-67
2021/12/15 04:39:18;;;;;;;59.63;24.02;;;;;;;;;;4990454;28;20025;-67
2021/12/15 04:41:48;;;;;;;52.22;23.13;;;;;;;;;;4991122;28;20375;-66
2021/12/15 04:44:15;;;;;;;48.63;22.48;;;;;;;;;;4989654;28;20420;-66
2021/12/15 04:46:44;;;;;;;51.08;23.42;;;;;;;;;;4972785;28;20357;-68
2021/12/15 04:49:11;;;;;;;56.42;22.20;;;;;;;;;;4972362;28;20517;-67
2021/12/15 04:51:37;;;;;;;46.28;21.27;;;;;;;;;;4971977;28;20394;-68
2021/12/15 04:54:03;;;;;;;56.35;22.00;;;;;;;;;;4989854;28;20391;-67
2021/12/15 04:56:28;;;;;;;63.17;23.30;;;;;;;;;;4989923;28;20398;-66
2021/12/15 04:58:55;;;;;;;49.15;22.17;;;;;;;;;;4989806;28;20522;-67
2021/12/15 05:01:20;;;;;;;49.17;23.48;;;;;;;;;;4989609;28;20359;-67
2021/12/15 05:03:46;;;;;;;47.38;22.40;;;;;;;;;;4972480;28;20344;-66
2021/12/15 05:06:12;;;;;;;50.17;22.30;;;;;;;;;;4989479;28;20359;-67
2021/12/15 05:08:39;;;;;;;42.65;22.67;;;;;;;;;;4988591;28;20025;-66
2021/12/15 05:11:05;;;;;;;55.45;23.40;;;;;;;;;;4987981;28;20324;-67
2021/12/15 05:13:32;;;;;;;53.05;23.02;;;;;;;;;;4989308;28;20391;-67
2021/12/15 05:15:59;;;;;;;46.63;19.88;;;;;;;;;;4989912;28;20483;-66
2021/12/15 05:18:24;;;;;;;55.58;24.05;;;;;;;;;;4989653;28;20436;-66
2021/12/15 05:20:52;;;;;;;49.72;20.83;;;;;;;;;;4988283;28;20359;-66
2021/12/15 05:23:18;;;;;;;44.10;21.60;;;;;;;;;;4989033;28;20024;-66
2021/12/15 05:25:46;;;;;;;55.50;22.52;;;;;;;;;;4987957;28;20443;-66
2021/12/15 05:28:12;;;;;;;50.65;21.73;;;;;;;;;;4990985;28;20047;-67
2021/12/15 05:30:37;;;;;;;53.20;24.13;;;;;;;;;;4970926;28;20424;-67
2021/12/15 05:33:03;;;;;;;48.95;22.10;;;;;;;;;;4987842;28;20416;-66
2021/12/15 05:35:29;;;;;;;57.55;21.23;;;;;;;;;;4987722;28;20094;-66
2021/12/15 05:37:58;;;;;;;59.63;23.95;;;;;;;;;;4987393;28;20507;-66
2021/12/15 05:40:25;;;;;;;62.17;24.27;;;;;;;;;;4971394;28;20501;-67
2021/12/15 05:42:55;;;;;;;52.60;22.35;;;;;;;;;;4989084;28;20478;-66
2021/12/15 05:45:21;;;;;;;54.17;22.60;;;;;;;;;;4988834;28;20385;-67
2021/12/15 05:47:46;;;;;;;49.92;21.60;;;;;;;;;;4989075;28;20339;-67
2021/12/15 05:50:12;;;;;;;44.78;20.58;;;;;;;;;;4988848;28;20456;-67
2021/12/15 05:52:38;;;;;;;50.95;21.00;;;;;;;;;;4987740;28;20428;-66
2021/12/15 05:55:06;;;;;;;57.03;23.27;;;;;;;;;;4988973;28;20090;-66
2021/12/15 05:57:32;;;;;;;57.92;22.67;;;;;;;;;;4988894;28;20448;-66
2021/12/15 05:59:57;;;;;;;53.10;22.20;;;;;;;;;;4971204;28;20421;-67
2021/12/15 06:02:22;;;;;;;45.42;23.20;;;;;;;;;;4987417;28;20060;-66
2021/12/15 06:04:48;;;;;;;47.58;20.23;;;;;;;;;;4971392;28;20099;-66
2021/12/15 06:07:13;;;;;;;49.92;22.08;;;;;;;;;;4971126;28;20466;-66
2021/12/15 06:09:39;;;;;;;48.92;20.83;;;;;;;;;;4986841;28;20364;-66
2021/12/15 06:12:05;;;;;;;53.47;23.08;;;;;;;;;;4988801;28;20343;-67
2021/12/15 06:14:31;;;;;;;50.95;22.50;;;;;;;;;;4992804;28;20436;-66
2021/12/15 06:16:59;;;;;;;55.45;23.42;;;;;;;;;;4995246;28;20443;-66
2021/12/15 06:19:25;;;;;;;61.75;23.75;;;;;;;;;;4977345;28;20463;-67
2021/12/15 06:21:50;;;;;;;50.38;23.48;;;;;;;;;;4993577;28;20412;-67
2021/12/15 06:24:15;;;;;;;53.97;22.75;;;;;;;;;;4995043;28;20448;-66
2021/12/15 06:26:41;;;;;;;61.20;23.85;;;;;;;;;;4993728;28;20408;-67
2021/12/15 06:29:06;;;;;;;46.78;20.63;;;;;;;;;;4995201;28;20608;-67
2021/12/15 06:31:32;;;;;;;52.80;22.85;;;;;;;;;;4995170;28;20402;-67
2021/12/15 06:33:57;;;;;;;47.83;20.90;;;;;;;;;;4995097;28;20456;-67
2021/12/15 06:36:22;;;;;;;50.65;22.95;;;;;;;;;;4995404;28;20377;-66
2021/12/15 06:38:53;;;;;;;56.40;24.25;;;;;;;;;;4995877;28;20528;-66
2021/12/15 06:41:20;;;;;;;51.03;20.90;;;;;;;;;;4996099;28;20397;-66
2021/12/15 06:43:50;;;;;;;62.08;21.65;;;;;;;;;;4993643;28;20017;-66
2021/12/15 07:00:12;;;;;;;60.00;23.88;;;;;;;;;;4994827;28;20414;-67
2021/12/15 07:02:38;;;;;;;47.97;20.95;;;;;;;;;;4995662;28;20029;-67
2021/12/15 07:05:07;;;;;;;48.88;21.73;;;;;;;;;;4976696;28;20339;-66
2021/12/15 07:07:34;;;;;;;54.92;22.65;;;;;;;;;;4976397;28;20391;-66
2021/12/15 07:09:59;;;;;;;48.92;21.27;;;;;;;;;;4995971;28;20432;-66
2021/12/15 07:12:24;;;;;;;52.15;23.15;;;;;;;;;;4994745;28;20374;-67
2021/12/15 07:14:50;;;;;;;53.40;22.60;;;;;;;;;;4994922;28;20060;-66
2021/12/15 07:17:21;;;;;;;45.97;21.58;;;;;;;;;;4993106;28;20029;-66
2021/12/15 07:20:06;;;;;;;41.13;20.42;;;;;;;;;;4993149;28;20368;-66
2021/12/15 07:22:51;;;;;;;52.58;22.98;;;;;;;;;;4992956;28;20467;-66
2021/12/15 07:25:17;;;;;;;47.33;21.33;;;;;;;;;;4994021;28;20464;-67
2021/12/15 07:27:43;;;;;;;54.28;24.05;;;;;;;;;;4991578;28;20481;-67
2021/12/15 07:30:09;;;;;;;45.13;20.38;;;;;;;;;;4991702;28;20375;-66
2021/12/15 07:32:35;;;;;;;49.65;23.65;;;;;;;;;;4989853;28;20456;-67
2021/12/15 07:35:00;;;;;;;52.90;20.75;;;;;;;;;;4990053;28;20321;-66
2021/12/15 07:37:26;;;;;;;41.58;20.55;;;;;;;;;;4990480;28;20423;-66
2021/12/15 07:39:57;;;;;;;49.58;22.58;;;;;;;;;;4991440;28;20506;-66
2021/12/15 07:42:35;;;;;;;52.38;22.77;;;;;;;;;;4991572;28;20440;-66
2021/12/15 07:45:02;;;;;;;50.72;20.50;;;;;;;;;;4991084;28;20444;-67
2021/12/15 07:47:28;;;;;;;54.63;22.00;;;;;;;;;;4992299;28;20439;-67
2021/12/15 07:49:53;;;;;;;50.40;22.35;;;;;;;;;;4989382;28;20360;-66
2021/12/15 07:52:19;;;;;;;45.70;21.05;;;;;;;;;;4990817;28;20490;-67
2021/12/15 07:54:44;;;;;;;55.15;22.02;;;;;;;;;;4990934;28;20029;-66
2021/12/15 07:57:16;;;;;;;52.78;21.35;;;;;;;;;;4973213;28;20410;-66
2021/12/15 07:59:41;;;;;;;52.05;22.23;;;;;;;;;;4990776;28;20392;-66
2021/12/15 08:02:06;;;;;;;54.25;21.40;;;;;;;;;;4990651;28;20171;-66
2021/12/15 08:04:32;;;;;;;53.28;22.75;;;;;;;;;;4990662;28;20420;-66
2021/12/15 08:06:57;;;;;;;40.95;20.05;;;;;;;;;;4990455;28;20471;-67
2021/12/15 08:09:23;;;;;;;41.13;20.98;;;;;;;;;;4991104;28;20355;-67
2021/12/15 08:11:49;;;;;;;55.45;23.35;;;;;;;;;;4990510;28;20091;-67
2021/12/15 08:14:15;;;;;;;59.15;25.00;;;;;;;;;;4989300;28;20025;-66
2021/12/15 08:16:41;;;;;;;54.17;21.88;;;;;;;;;;4990730;28;20474;-66
2021/12/15 08:19:08;;;;;;;47.08;21.60;;;;;;;;;;4972961;28;20094;-66
2021/12/15 08:21:33;;;;;;;53.90;22.60;;;;;;;;;;4990208;28;20403;-68
2021/12/15 08:23:58;;;;;;;48.03;21.42;;;;;;;;;;4990504;28;20357;-67
2021/12/15 08:26:24;;;;;;;50.83;23.08;;;;;;;;;;4990481;28;20538;-67
2021/12/15 08:28:51;;;;;;;51.42;22.13;;;;;;;;;;4990966;28;20527;-66
2021/12/15 08:31:17;;;;;;;57.47;20.98;;;;;;;;;;4991438;28;20432;-67
2021/12/15 08:33:42;;;;;;;50.70;21.02;;;;;;;;;;4990579;28;20451;-67
2021/12/15 08:36:10;;;;;;;47.85;21.30;;;;;;;;;;4990186;28;20415;-67
2021/12/15 08:38:39;;;;;;;51.22;20.35;;;;;;;;;;4991246;28;20435;-66
2021/12/15 08:41:10;;;;;;;47.85;22.35;;;;;;;;;;4989034;28;20064;-67
2021/12/15 08:43:36;;;;;;;55.15;23.20;;;;;;;;;;4990176;28;20479;-66
2021/12/15 08:46:07;;;;;;;49.97;21.50;;;;;;;;;;4971892;28;20501;-66
2021/12/15 08:48:35;;;;;;;50.00;22.38;;;;;;;;;;4988560;28;20459;-66
2021/12/15 08:51:02;;;;;;;55.03;23.30;;;;;;;;;;4988247;28;20443;-66
2021/12/15 08:53:27;;;;;;;51.38;21.25;;;;;;;;;;4989741;28;20131;-66
2021/12/15 08:55:53;;;;;;;47.42;22.38;;;;;;;;;;4989988;28;20455;-67
2021/12/15 08:58:20;;;;;;;46.83;20.88;;;;;;;;;;4989747;28;20356;-66
2021/12/15 09:00:48;;;;;;;55.60;24.33;;;;;;;;;;4990390;28;20458;-66
2021/12/15 09:03:14;;;;;;;51.17;23.30;;;;;;;;;;4990970;28;20450;-67
2021/12/15 09:05:40;;;;;;;49.13;22.77;;;;;;;;;;4989893;28;20371;-66
2021/12/15 09:08:06;;;;;;;52.47;23.25;;;;;;;;;;4971596;28;20440;-66
2021/12/15 09:10:34;;;;;;;51.15;23.55;;;;;;;;;;4990793;28;20426;-67
2021/12/15 09:13:01;;;;;;;49.80;22.13;;;;;;;;;;4989958;28;20352;-66
2021/12/15 09:15:26;;;;;;;49.42;22.10;;;;;;;;;;4987932;28;20344;-67
2021/12/15 09:17:53;;;;;;;51.50;21.98;;;;;;;;;;4989593;28;20364;-66
2021/12/15 09:20:22;;;;;;;57.25;22.65;;;;;;;;;;4989901;28;20371;-66
2021/12/15 09:22:47;;;;;;;;;;;;;;;;;;4989028;28;20062;-66
2021/12/15 09:25:14;;;;;;;44.60;19.48;;;;;;;;;;4989125;28;20331;-67
2021/12/15 09:27:40;;;;;;;41.53;20.20;;;;;;;;;;4989353;28;20086;-67
2021/12/15 09:30:12;;;;;;;42.88;19.63;;;;;;;;;;4989316;28;20032;-67
2021/12/15 09:32:38;;;;;;;45.92;22.48;;;;;;;;;;4971440;28;20481;-67
2021/12/15 09:35:05;;;;;;;50.50;22.70;;;;;;;;;;4990430;28;20404;-67
2021/12/15 09:37:31;;;;;;;49.13;21.80;;;;;;;;;;4989719;28;20439;-66
2021/12/15 09:39:57;;;;;;;51.30;22.15;;;;;;;;;;4987164;28;20293;-67
2021/12/15 09:42:28;;;;;;;56.80;23.05;;;;;;;;;;4988932;28;20129;-66
2021/12/15 09:45:02;;;;;;;44.42;21.95;;;;;;;;;;4988776;28;20352;-67
2021/12/15 10:03:55;;;;;;;52.28;22.00;;;;;;;;;;4988498;28;20347;-67
2021/12/15 10:10:40;;;;;;;46.97;23.00;;;;;;;;;;4988618;28;20442;-66
2021/12/15 10:17:51;;;;;;;47.53;20.98;;;;;;;;;;4989512;28;20470;-67
2021/12/15 10:20:20;;;;;;;49.63;22.33;;;;;;;;;;4989738;28;20386;-66
2021/12/15 10:22:51;;;;;;;42.58;19.40;;;;;;;;;;4990152;28;20017;-67
2021/12/15 10:25:30;;;;;;;47.08;21.23;;;;;;;;;;4988565;28;20360;-66
2021/12/15 10:28:03;;;;;;;53.55;21.35;;;;;;;;;;4989014;28;20562;-66
2021/12/15 10:30:32;;;;;;;45.63;20.27;;;;;;;;;;4988332;28;20363;-67
2021/12/15 10:33:05;;;;;;;42.37;19.30;;;;;;;;;;4988389;28;20045;-67
2021/12/15 10:35:39;;;;;;;45.55;21.52;;;;;;;;;;4987344;28;20024;-67
2021/12/15 10:38:07;;;;;;;53.65;20.80;;;;;;;;;;4988312;28;20033;-67
2021/12/15 10:40:39;;;;;;;44.25;20.60;;;;;;;;;;4986746;28;20371;-67
2021/12/15 10:43:05;;;;;;;46.47;20.73;;;;;;;;;;4988800;28;20049;-67
2021/12/15 10:45:37;;;;;;;46.47;19.88;;;;;;;;;;4988401;28;20032;-67
2021/12/15 10:48:02;;;;;;;47.10;19.85;;;;;;;;;;4988543;28;20060;-67
2021/12/15 10:50:28;;;;;;;53.72;23.15;;;;;;;;;;4988363;28;20048;-68
2021/12/15 10:52:59;;;;;;;45.65;20.27;;;;;;;;;;4987311;28;20375;-67
2021/12/15 10:55:34;;;;;;;46.25;23.13;;;;;;;;;;4987321;28;20423;-68
2021/12/15 10:58:00;;;;;;;53.28;22.95;;;;;;;;;;4986799;28;20431;-67
2021/12/15 11:00:27;;;;;;;47.80;22.60;;;;;;;;;;4971119;28;20452;-67
2021/12/15 11:03:02;;;;;;;50.20;22.52;;;;;;;;;;4991987;28;20336;-67
2021/12/15 11:05:27;;;;;;;54.75;21.67;;;;;;;;;;4973951;28;20051;-67
2021/12/15 11:07:58;;;;;;;45.28;20.88;;;;;;;;;;4973958;28;20036;-67
2021/12/15 11:10:26;;;;;;;53.38;22.08;;;;;;;;;;4974304;28;20025;-67
2021/12/15 11:12:57;;;;;;;46.90;19.65;;;;;;;;;;4992150;28;20317;-66
2021/12/15 11:15:26;;;;;;;44.65;21.20;;;;;;;;;;4990515;28;20037;-67
2021/12/15 11:18:11;;;;;;;52.33;21.58;;;;;;;;;;4990147;28;20033;-67
2021/12/15 11:20:40;;;;;;;45.95;20.38;;;;;;;;;;4993098;28;20355;-67
2021/12/15 11:23:09;;;;;;;47.80;22.48;;;;;;;;;;4992402;28;20448;-67
2021/12/15 11:25:54;;;;;;;42.10;20.42;;;;;;;;;;4991694;28;20432;-67
2021/12/15 11:28:21;;;;;;;46.60;19.25;;;;;;;;;;4974515;28;20047;-67
2021/12/15 11:31:07;;;;;;;47.85;21.08;;;;;;;;;;4991376;28;20456;-67
2021/12/15 11:33:59;;;;;;;47.05;19.50;;;;;;;;;;4991588;28;20444;-67
2021/12/15 11:36:31;;;;;;;42.35;19.77;;;;;;;;;;4991927;28;20501;-67
2021/12/15 11:39:08;;;;;;;44.03;20.02;;;;;;;;;;4989844;28;20025;-69
2021/12/15 11:41:39;;;;;;;45.30;20.10;;;;;;;;;;4990302;28;20412;-67
2021/12/15 11:44:06;;;;;;;41.20;19.27;;;;;;;;;;4973295;28;20371;-67
2021/12/15 11:46:39;;;;;;;43.45;19.98;;;;;;;;;;4991590;28;20461;-67
2021/12/15 11:49:10;;;;;;;40.45;18.27;;;;;;;;;;4973718;28;20459;-66
2021/12/15 11:51:42;;;;;;;42.88;20.38;;;;;;;;;;4972845;28;20459;-67
2021/12/15 11:54:22;;;;;;;43.88;18.40;;;;;;;;;;4990978;28;20044;-69
2021/12/15 11:56:57;;;;;;;40.30;20.17;;;;;;;;;;4990821;28;20347;-67
2021/12/15 11:59:36;;;;;;;42.67;21.98;;;;;;;;;;4991651;28;20447;-67
2021/12/15 12:02:02;;;;;;;39.08;19.05;;;;;;;;;;4989524;28;20083;-66
2021/12/15 12:04:36;;;;;;;41.70;18.50;;;;;;;;;;4991059;28;20061;-67
2021/12/15 12:07:26;;;;;;;43.53;19.52;;;;;;;;;;4990369;28;20540;-67
2021/12/15 12:10:02;;;;;;;46.13;18.95;;;;;;;;;;4990543;28;20509;-67
2021/12/15 12:12:35;;;;;;;42.90;20.85;;;;;;;;;;4988854;28;20102;-67
2021/12/15 12:15:06;;;;;;;40.17;19.15;;;;;;;;;;4990626;28;20428;-67
2021/12/15 12:17:37;;;;;;;44.10;19.17;;;;;;;;;;4992423;28;20434;-67
2021/12/15 12:20:16;;;;;;;40.03;18.20;;;;;;;;;;4990622;28;20328;-68
2021/12/15 12:22:45;;;;;;;40.88;19.45;;;;;;;;;;4990802;28;20483;-67
2021/12/15 12:25:14;;;;;;;46.53;19.70;;;;;;;;;;4990301;28;20367;-67
2021/12/15 12:27:41;;;;;;;43.72;19.20;;;;;;;;;;4990417;28;20394;-66
2021/12/15 12:30:14;;;;;;;39.58;20.60;;;;;;;;;;4990174;28;20029;-67
2021/12/15 12:32:40;;;;;;;43.92;19.65;;;;;;;;;;4990279;28;20566;-66
2021/12/15 12:35:08;;;;;;;44.78;21.38;;;;;;;;;;4972306;28;20439;-67
2021/12/15 12:37:34;;;;;;;44.83;20.65;;;;;;;;;;4988833;28;20466;-67
2021/12/15 12:40:08;;;;;;;39.88;21.40;;;;;;;;;;4990452;28;20434;-67
2021/12/15 12:42:40;;;;;;;43.83;21.45;;;;;;;;;;4990436;28;20409;-67
2021/12/15 12:45:15;;;;;;;50.15;20.83;;;;;;;;;;4988929;28;20033;-67
2021/12/15 12:47:58;;;;;;;49.30;21.10;;;;;;;;;;4972395;28;20415;-67
2021/12/15 12:50:52;;;;;;;44.95;21.60;;;;;;;;;;4970267;28;20368;-67
2021/12/15 12:59:44;;;;;;;54.10;23.40;;;;;;;;;;4971202;28;20483;-67
2021/12/15 13:02:39;;;;;;;42.20;22.15;;;;;;;;;;4952398;28;20443;-67
2021/12/15 13:05:08;;;;;;;51.78;22.67;;;;;;;;;;4970129;28;20437;-69
2021/12/15 13:07:48;;;;;;;47.38;21.48;;;;;;;;;;4952155;28;20499;-67
2021/12/15 13:10:14;;;;;;;48.25;21.50;;;;;;;;;;4970565;28;20026;-67
2021/12/15 13:12:47;;;;;;;52.00;22.35;;;;;;;;;;4970008;28;20507;-67
2021/12/15 13:15:16;;;;;;;47.42;23.27;;;;;;;;;;4937060;28;20025;-67
2021/12/15 13:17:52;;;;;;;;;;;;;;;;;;4971038;28;20432;-67
2021/12/15 13:20:26;;;;;;;51.20;23.27;;;;;;;;;;4969752;28;20386;-67
2021/12/15 13:31:28;;;;;;;45.90;21.80;;;;;;;;;;4889633;29;20493;-67
2021/12/15 13:33:56;;;;;;;50.45;20.83;;;;;;;;;;4935425;28;20355;-67
2021/12/15 13:36:36;;;;;;;44.22;19.95;;;;;;;;;;4967790;28;20413;-67
2021/12/15 13:39:01;;;;;;;44.28;21.52;;;;;;;;;;4968148;28;20448;-67
2021/12/15 13:41:39;;;;;;;45.67;20.17;;;;;;;;;;4969465;28;20456;-67
2021/12/15 13:44:24;;;;;;;48.72;21.27;;;;;;;;;;4969655;28;20087;-67
2021/12/15 13:46:53;;;;;;;42.38;20.02;;;;;;;;;;4969629;28;20451;-67
2021/12/15 13:49:22;;;;;;;48.15;22.60;;;;;;;;;;4969328;28;20325;-67
2021/12/15 13:51:59;;;;;;;55.50;23.45;;;;;;;;;;4968565;28;20399;-66
2021/12/15 13:54:33;;;;;;;46.92;21.67;;;;;;;;;;4970846;28;20492;-67
2021/12/15 13:57:14;;;;;;;49.10;22.65;;;;;;;;;;4968894;28;20355;-67
2021/12/15 13:59:58;;;;;;;47.22;20.92;;;;;;;;;;4969181;28;20048;-67
2021/12/15 14:02:37;;;;;;;49.90;21.63;;;;;;;;;;4969434;28;20349;-67
2021/12/15 14:05:05;;;;;;;49.42;22.15;;;;;;;;;;4967789;28;20463;-67
2021/12/15 14:07:30;;;;;;;53.03;21.90;;;;;;;;;;4968887;28;20435;-69
2021/12/15 14:10:11;;;;;;;51.00;22.65;;;;;;;;;;4969550;28;20069;-69
2021/12/15 14:12:45;;;;;;;49.40;20.85;;;;;;;;;;4969705;28;20456;-66
2021/12/15 14:15:13;;;;;;;44.08;19.88;;;;;;;;;;4969815;28;20448;-70
2021/12/15 14:17:38;;;;;;;49.80;22.88;;;;;;;;;;4969354;28;20344;-70
2021/12/15 14:20:15;;;;;;;44.58;21.77;;;;;;;;;;4951315;28;20075;-67
2021/12/15 14:22:41;;;;;;;50.58;22.15;;;;;;;;;;4950999;28;20087;-66
2021/12/15 14:25:07;;;;;;;43.85;22.65;;;;;;;;;;4951691;28;20041;-66
2021/12/15 14:27:33;;;;;;;43.78;21.55;;;;;;;;;;4969394;28;20353;-67
2021/12/15 14:29:58;;;;;;;50.00;22.08;;;;;;;;;;4967652;28;20053;-67
2021/12/15 14:32:25;;;;;;;44.83;21.05;;;;;;;;;;4950919;28;20452;-66
2021/12/15 14:34:50;;;;;;;44.85;20.90;;;;;;;;;;4951587;28;20500;-66
2021/12/15 14:37:17;;;;;;;45.03;21.20;;;;;;;;;;4973862;28;20561;-67
2021/12/15 14:39:47;;;;;;;44.58;20.80;;;;;;;;;;4973078;28;20064;-66
2021/12/15 14:42:16;;;;;;;46.67;20.77;;;;;;;;;;4972673;28;20493;-67
2021/12/15 14:44:50;;;;;;;46.20;22.50;;;;;;;;;;4955338;28;20336;-66
2021/12/15 14:47:23;;;;;;;42.40;20.75;;;;;;;;;;4954642;28;20436;-66
2021/12/15 14:49:54;;;;;;;42.90;20.98;;;;;;;;;;4972137;28;20044;-66
2021/12/15 14:52:24;;;;;;;51.78;20.60;;;;;;;;;;4955036;28;20116;-66
2021/12/15 14:54:52;;;;;;;44.47;21.17;;;;;;;;;;4973355;28;20452;-67
2021/12/15 14:57:23;;;;;;;46.25;20.83;;;;;;;;;;4972036;28;20021;-66
2021/12/15 15:00:15;;;;;;;44.70;20.70;;;;;;;;;;4954333;28;20470;-66
2021/12/15 15:02:43;;;;;;;41.22;19.95;;;;;;;;;;4954740;28;20380;-71
2021/12/15 15:05:25;;;;;;;49.35;20.77;;;;;;;;;;4973518;28;20416;-66
2021/12/15 15:07:53;;;;;;;44.97;20.23;;;;;;;;;;4934771;28;20395;-66
2021/12/15 15:10:22;;;;;;;43.70;20.40;;;;;;;;;;4952154;28;20400;-66
2021/12/15 15:12:48;;;;;;;46.97;21.33;;;;;;;;;;4954223;28;20022;-66
2021/12/15 15:15:25;;;;;;;52.33;22.30;;;;;;;;;;4950597;28;20437;-66
2021/12/15 15:18:01;;;;;;;45.78;21.73;;;;;;;;;;4952974;28;20429;-66
2021/12/15 15:20:35;;;;;;;44.60;21.95;;;;;;;;;;4952558;28;20473;-66
2021/12/15 15:23:04;;;;;;;42.05;20.98;;;;;;;;;;4951742;28;20397;-66
2021/12/15 15:25:33;;;;;;;48.08;19.38;;;;;;;;;;4952403;28;20065;-67
2021/12/15 15:28:07;;;;;;;44.80;22.43;;;;;;;;;;4934644;28;20326;-66
2021/12/15 15:30:34;;;;;;;47.70;19.77;;;;;;;;;;4952592;28;20427;-66
2021/12/15 15:33:06;;;;;;;43.92;21.50;;;;;;;;;;4951859;28;20492;-66
2021/12/15 15:35:34;;;;;;;37.75;19.25;;;;;;;;;;4951334;28;20146;-67
2021/12/15 15:38:08;;;;;;;49.33;20.63;;;;;;;;;;4934892;28;20034;-66
2021/12/15 15:40:37;;;;;;;40.30;19.02;;;;;;;;;;4951929;28;20264;-66
2021/12/15 15:43:16;;;;;;;47.45;20.77;;;;;;;;;;4950579;28;20396;-66
2021/12/15 15:45:46;;;;;;;41.55;18.30;;;;;;;;;;4950663;28;20453;-66
2021/12/15 15:48:18;;;;;;;45.83;21.55;;;;;;;;;;4950320;28;20021;-66
2021/12/15 15:50:52;;;;;;;45.35;21.52;;;;;;;;;;4950952;28;20433;-66
2021/12/15 15:53:18;;;;;;;45.58;20.55;;;;;;;;;;4951268;28;20455;-66
2021/12/15 15:55:45;;;;;;;47.17;20.17;;;;;;;;;;4950080;28;20421;-66